Weather observations for the past three days for
Flagler County Airport
Imperial (Metric)
Date Time (edt) Wind (mph) Vis. (mi.) Weather Sky Cond. Temperature (ºF) Relative Humidity Wind Chill (°F) Heat Index (°F) Pressure Precipitation (in)
Air Dwpt 6 hour altimeter (in) sea level (mb) 1 hr 3 hr 6 hr
Max. Min.
06 12:50 S 6 10.00 Fair CLR 84.2 62.6 48% 85 30.05 0.0
06 11:50 S 5 10.00 Fair CLR 84.2 62.6 48% 85 30.06 0.0
06 10:50 S 5 10.00 Fair CLR 80.6 64.4 58% 82 30.05 0.0
06 09:50 S 12 10.00 Fair CLR 78.8 66.2 65% 81 30.05 0.0
06 07:50 Calm 10.00 Fair CLR 64.4 62.6 94% 30.03 0.0
06 07:35 Calm 10.00 Fair CLR 62.6 60.8 94% 30.03 0.0
06 07:15 Calm 10.00 Fair CLR 60.6 59 94% 30.03 0.0
06 06:55 Calm 10.00 Fair CLR 58.6 57.4 96% 30.02 0.0
06 06:50 Calm 10.00 Fair CLR 59 57.2 94% 30.02 0.0
06 06:35 Calm 10.00 Fair CLR 58.5 57 95% 30.02 0.0
06 06:15 Calm 10.00 Fair CLR 59.2 57.9 96% 30.02 0.0
06 05:55 Calm 10.00 Fair CLR 59 57.7 96% 30.01 0.0
06 05:50 Calm 10.00 Fair CLR 59 57.2 94% 30.01 0.0
06 05:35 Calm 10.00 Fair CLR 59 57 93% 30.01 0.0
06 05:15 Calm 10.00 Fair CLR 58.5 56.8 94% 30.02 0.0
06 04:55 Calm 10.00 Fair CLR 59.2 56.7 91% 30.01 0.0
06 04:35 Calm 10.00 Fair CLR 59.4 57.2 93% 30.01 0.0
06 04:15 Calm 10.00 Fair CLR 59.4 57.6 94% 30 0.0
06 03:55 Calm 10.00 Fair CLR 59.7 57.6 93% 30.01 0.0
06 03:35 Calm 10.00 Fair CLR 59.4 57.2 93% 30.01 0.0
06 03:15 Calm 10.00 Fair CLR 59.4 57 92% 30.01 0.0
06 02:55 Calm 10.00 Fair CLR 59.9 57.2 91% 30.01 0.0
06 02:35 Calm 10.00 Fair CLR 60.4 57.7 91% 30.02 0.0
06 01:55 Calm 10.00 Fair CLR 61.5 58.5 71.2 61.5 90% 30.03 0.0
06 01:35 Calm 10.00 Fair CLR 61.9 58.5 89% 30.03 0.0
06 01:15 Calm 10.00 Fair CLR 62.1 59.5 92% 30.04 0.0
06 00:55 Calm 10.00 Fair CLR 61.9 58.5 89% 30.04 0.0
06 00:35 Calm 10.00 Fair CLR 61.7 58.8 90% 30.04 0.0
06 00:15 Calm 10.00 Fair CLR 63.7 58.8 84% 30.04 0.0
05 23:55 Calm 10.00 Fair CLR 63 58.3 85% 30.03 0.0
05 23:35 Calm 10.00 Fair CLR 62.1 57.4 85% 30.03 0.0
05 23:15 Calm 10.00 Fair CLR 63.1 56.8 80% 30.02 0.0
05 22:55 Calm 10.00 Fair CLR 63.7 57.2 80% 30.02 0.0
05 22:35 Calm 10.00 Fair CLR 64.4 56.8 77% 30.02 0.0
05 22:15 SE 3 10.00 Fair CLR 65.1 56.7 74% 30.02 0.0
05 21:55 SE 3 10.00 Fair CLR 66.2 56.7 72% 30.02 0.0
05 18:50 E 10 10.00 Fair CLR 75.2 55.4 50% 78 30 0.0
05 17:50 E 7 10.00 Fair CLR 78.8 53.6 42% 79 30.01 0.0
05 16:50 E 12 10.00 Fair CLR 78.8 53.6 42% 79 30.01 0.0
05 15:50 E 9 G 18 10.00 Fair CLR 78.8 55.4 45% 79 30.02 0.0
05 14:50 E 9 10.00 Fair CLR 80.6 55.4 42% 81 30.03 0.0
05 13:50 E 10 10.00 Partly Cloudy SCT070 78.8 57.2 48% 80 30.05 0.0
05 12:50 SE 9 10.00 Partly Cloudy SCT070 78.8 55.4 45% 79 30.06 0.0
05 11:50 E 8 10.00 Fair CLR 78.8 55.4 45% 79 30.05 0.0
05 10:50 SE 7 10.00 Fair CLR 78.8 57.2 48% 80 30.05 0.0
05 07:50 Calm 10.00 Fair CLR 60.8 59 94% 30.02 0.0
05 07:35 Calm 10.00 Fair CLR 58.6 57 94% 30.02 0.0
05 07:15 Calm 10.00 Fair CLR 56.5 55.2 96% 30.02 0.0
05 06:55 Calm 10.00 Fair CLR 55.9 54.9 96% 30.02 0.0
05 06:50 Calm 10.00 Fair CLR 55.4 55.4 100% 30.02 0.0
05 06:35 Calm 10.00 Fair CLR 55.8 54.9 97% 30.01 0.0
05 05:55 Calm 10.00 Fair CLR 55.8 54.7 96% 30 0.0
05 05:50 Calm 10.00 Fair CLR 55.4 55.4 100% 30 0.0
05 05:35 Calm 10.00 Fair CLR 56.3 55 96% 30 0.0
05 05:15 Calm 10.00 Fair CLR 55.6 54 94% 29.99 0.0
05 04:55 Calm 10.00 Fair CLR 57 55.9 96% 29.99 0.0
05 04:35 Calm 10.00 Fair CLR 56.8 55.2 94% 30 0.0
05 04:15 Calm 10.00 Fair CLR 57.9 55.9 93% 29.99 0.0
05 03:55 Calm 10.00 Fair CLR 57 55 93% 29.99 0.0
05 03:35 Calm 10.00 Fair CLR 57.6 55.6 93% 29.99 0.0
05 03:15 Calm 10.00 Fair CLR 58.3 56.1 93% 30 0.0
05 02:55 Calm 10.00 Fair CLR 58.3 55.6 91% 30 0.0
05 02:35 Calm 10.00 Fair CLR 58.3 55.9 92% 30 0.0
05 02:15 Calm 10.00 Fair CLR 58.5 55.2 89% 30 0.0
05 01:55 Calm 10.00 Fair CLR 59.9 55.4 72.9 59.2 85% 30.01 0.0
05 01:35 Calm 10.00 Fair CLR 60.1 55.4 85% 30.02 0.0
05 01:15 Calm 10.00 Fair CLR 60.6 55.4 83% 30.02 0.0
05 00:55 Calm 10.00 Fair CLR 61.3 55.4 81% 30.02 0.0
05 00:35 Calm 10.00 Fair CLR 62.8 55.6 77% 30.03 0.0
05 00:15 E 3 10.00 Fair CLR 63.3 55.2 75% 30.03 0.0
04 23:55 SE 3 10.00 Fair CLR 63.9 55.4 74% 30.03 0.0
04 23:35 SE 5 10.00 Fair CLR 64.4 55.6 73% 30.04 0.0
04 23:15 SE 5 10.00 Fair CLR 64.8 55.6 72% 30.04 0.0
04 22:55 E 5 10.00 Fair CLR 65.3 55.8 71% 30.04 0.0
04 22:35 E 6 10.00 Fair CLR 65.3 55.9 72% 30.04 0.0
04 22:15 E 6 10.00 Fair CLR 65.3 55.8 71% 30.04 0.0
04 21:55 E 5 10.00 Fair CLR 64.9 55.6 72% 30.05 0.0
04 18:50 SE 12 10.00 Fair CLR 73.4 55.4 53% 30.01 0.0
04 17:50 SE 12 G 21 10.00 Partly Cloudy SCT045 75.2 53.6 47% 78 30.02 0.0
04 16:50 E 13 10.00 Partly Cloudy SCT050 75.2 55.4 50% 78 30.02 0.0
04 15:50 E 14 G 18 10.00 Partly Cloudy SCT047 75.2 55.4 50% 78 30.03 0.0
04 14:50 E 7 10.00 Mostly Cloudy BKN043 73.4 55.4 53% 30.05 0.0
04 13:50 E 12 10.00 Partly Cloudy SCT043 77 55.4 47% 79 30.07 0.0
04 12:50 E 12 G 18 10.00 Mostly Cloudy BKN044 75.2 55.4 50% 78 30.07 0.0
04 11:50 NE 12 G 17 10.00 Partly Cloudy SCT042 SCT048 75.2 55.4 50% 78 30.08 0.0
04 10:50 NE 12 G 24 10.00 Partly Cloudy SCT039 73.4 55.4 53% 30.09 0.0
04 09:50 NE 8 10.00 Fair CLR 73.4 55.4 53% 30.07 0.0
04 08:50 Calm 10.00 Partly Cloudy SCT042 66.2 59 78% 30.07 0.0
04 07:50 Calm 10.00 Fair CLR 60.8 57.2 88% 30.06 0.0
04 07:35 Calm 10.00 Fair CLR 56.7 55 94% 30.05 0.0
04 07:15 Calm 10.00 Fair CLR 55.9 54.1 94% 30.05 0.0
04 06:55 Calm 10.00 Fair CLR 56.3 54 92% 30.05 0.0
04 06:50 Calm 10.00 Fair CLR 55.4 53.6 94% 30.05 0.0
04 06:35 Calm 10.00 Fair CLR 56.3 54.1 93% 30.04 0.0
04 06:15 Calm 10.00 Fair CLR 57 54.5 91% 30.04 0.0
04 05:55 Calm 10.00 Fair CLR 56.5 54.7 94% 30.04 0.0
04 05:50 Calm 10.00 Fair CLR 55.4 53.6 94% 30.04 0.0
04 05:35 Calm 10.00 Fair CLR 57 55 93% 30.04 0.0
04 05:15 Calm 10.00 Fair CLR 58.1 55.8 92% 30.04 0.0
04 04:55 N 3 10.00 Fair CLR 57.7 56.1 94% 30.04 0.0
04 04:35 N 3 10.00 Fair CLR 56.3 55 96% 30.04 0.0
04 04:15 Calm 10.00 Fair CLR 57.2 55.4 94% 30.04 0.0
04 03:55 Calm 10.00 Fair CLR 58.3 55.6 91% 30.03 0.0
04 03:35 Calm 10.00 Fair CLR 58.5 55.9 91% 30.04 0.0
04 03:15 N 3 10.00 Partly Cloudy SCT038 58.5 56.8 94% 30.04 0.0
04 02:55 Calm 10.00 Fair CLR 58.1 56.3 94% 30.04 0.0
04 02:35 Calm 10.00 Fair CLR 58.3 56.5 94% 30.05 0.0
04 02:15 Calm 10.00 Fair CLR 59.7 57.2 91% 30.05 0.0
04 01:55 Calm 10.00 Fair CLR 59.9 55.8 68 59.5 86% 30.06 0.0
04 01:35 Calm 10.00 Fair CLR 60.4 56.3 86% 30.07 0.0
04 01:15 Calm 10.00 Fair CLR 61 54.7 80% 30.07 0.0
04 00:55 Calm 10.00 Fair CLR 61.3 54.9 79% 30.07 0.0
04 00:35 Calm 10.00 Fair CLR 63.3 55 75% 30.07 0.0
04 00:15 Calm 10.00 Fair CLR 63.1 54.7 74% 30.07 0.0
03 23:55 Calm 10.00 Fair CLR 63.5 54 71% 30.07 0.0
03 23:35 Calm 10.00 Fair CLR 63.1 54.3 73% 30.07 0.0
03 23:15 Calm 10.00 Fair CLR 64.8 54.9 70% 30.08 0.0
03 22:55 Calm 10.00 Fair CLR 64.9 55.2 71% 30.08 0.0
03 22:35 Calm 10.00 Fair CLR 64.2 55.4 73% 30.07 0.0
03 22:15 Calm 10.00 Fair CLR 63.9 56.5 77% 30.07 0.0
03 21:55 Calm 10.00 Fair CLR 64.6 57.2 77% 30.07 0.0
03 18:50 NE 6 10.00 Fair CLR 71.6 53.6 53% 30.05 0.0
03 17:50 NE 9 10.00 Fair CLR 71.6 53.6 53% 30.04 0.0
03 16:50 N 9 10.00 Fair CLR 73.4 53.6 50% 30.05 0.0
03 15:50 E 8 10.00 Partly Cloudy SCT043 73.4 53.6 50% 30.06 0.0
03 13:50 NE 12 10.00 Partly Cloudy SCT039 73.4 53.6 50% 30.1 0.0
Date Time (edt) Wind (mph) Vis. (mi.) Weather Sky Cond. Air Dwpt Max. Min. Relative Humidity Wind Chill (°F) Heat Index (°F) altimeter (in) sea level (mb) 1 hr 3 hr 6 hr
6 hour
Temperature (ºF) Pressure Precipitation (in)